createdAt,value
2019-04-03T00:04:16.787Z,6.73
2019-04-03T00:09:18.389Z,6.71
2019-04-03T00:14:20.690Z,6.58
2019-04-03T00:19:22.425Z,6.35
2019-04-03T00:24:24.114Z,6.36
2019-04-03T00:29:25.847Z,6.44
2019-04-03T00:34:27.609Z,6.44
2019-04-03T00:39:29.380Z,6.58
2019-04-03T00:44:31.083Z,6.45
2019-04-03T00:49:32.887Z,6.20
2019-04-03T00:54:34.705Z,6.27
2019-04-03T00:59:36.425Z,6.14
2019-04-03T01:04:38.246Z,6.12
2019-04-03T01:09:40.005Z,6.18
2019-04-03T01:14:41.745Z,5.76
2019-04-03T01:19:43.513Z,5.71
2019-04-03T01:24:45.312Z,5.78
2019-04-03T01:29:47.056Z,5.76
2019-04-03T01:34:48.749Z,5.48
2019-04-03T01:39:51.236Z,5.52
2019-04-03T01:44:55.032Z,5.39
2019-04-03T01:49:58.459Z,5.40
2019-04-03T01:55:03.388Z,5.52
2019-04-03T02:00:06.971Z,5.33
2019-04-03T02:05:08.805Z,5.14
2019-04-03T02:10:20.330Z,5.21
2019-04-03T02:15:23.053Z,5.09
2019-04-03T02:20:26.761Z,5.29
2019-04-03T02:25:31.555Z,5.45
2019-04-03T02:30:32.825Z,5.51
2019-04-03T02:35:34.674Z,5.41
2019-04-03T02:40:36.396Z,5.29
2019-04-03T02:45:38.556Z,5.00
2019-04-03T02:50:40.294Z,5.08
2019-04-03T02:55:42.011Z,5.12
2019-04-03T03:00:43.779Z,5.11
2019-04-03T03:05:45.552Z,5.10
2019-04-03T03:10:48.979Z,5.06
2019-04-03T03:15:51.010Z,5.16
2019-04-03T03:20:52.888Z,5.06
2019-04-03T03:25:54.739Z,4.95
2019-04-03T03:31:02.031Z,4.81
2019-04-03T03:36:01.518Z,4.69
2019-04-03T03:41:03.482Z,4.67
2019-04-03T03:46:05.804Z,4.15
2019-04-03T03:51:07.667Z,4.06
2019-04-03T03:56:09.619Z,4.20
2019-04-03T04:01:11.362Z,4.31
2019-04-03T04:06:13.361Z,4.13
2019-04-03T04:11:15.536Z,4.24
2019-04-03T04:16:18.503Z,4.03
2019-04-03T04:21:20.222Z,4.02
2019-04-03T04:26:21.950Z,3.93
2019-04-03T04:31:24.581Z,3.83
2019-04-03T04:36:26.355Z,3.73
2019-04-03T04:41:28.154Z,3.87
2019-04-03T04:46:29.965Z,4.09
2019-04-03T04:51:31.822Z,3.98
2019-04-03T04:56:33.570Z,3.84
2019-04-03T05:01:35.267Z,4.03
2019-04-03T05:06:37.022Z,4.21
2019-04-03T05:11:39.469Z,4.30
2019-04-03T05:16:41.236Z,4.23
2019-04-03T05:21:43.185Z,4.73
2019-04-03T05:26:44.978Z,4.92
2019-04-03T05:31:46.762Z,5.14
2019-04-03T05:36:49.148Z,5.23
2019-04-03T05:41:50.985Z,5.62
2019-04-03T05:46:52.765Z,5.93
2019-04-03T05:51:54.653Z,6.51
2019-04-03T05:56:56.442Z,7.07
2019-04-03T06:01:58.369Z,7.51
2019-04-03T06:07:00.270Z,7.77
2019-04-03T06:12:02.074Z,8.17
2019-04-03T06:17:03.792Z,8.40
2019-04-03T06:22:05.609Z,8.68
2019-04-03T06:27:09.182Z,8.24
2019-04-03T06:32:11.059Z,8.25
2019-04-03T06:37:16.027Z,8.58
2019-04-03T06:42:17.863Z,8.52
2019-04-03T06:47:19.667Z,8.99
2019-04-03T06:52:22.137Z,8.67
2019-04-03T06:57:23.934Z,8.73
2019-04-03T07:02:27.725Z,8.87
2019-04-03T07:07:34.310Z,8.97
2019-04-03T07:12:34.168Z,9.28
2019-04-03T07:17:36.253Z,9.53
2019-04-03T07:22:38.043Z,10.28
2019-04-03T07:27:41.883Z,11.19
2019-04-03T07:32:43.542Z,11.89
2019-04-03T07:37:45.383Z,12.28
2019-04-03T07:42:47.141Z,12.49
2019-04-03T07:47:48.915Z,13.04
2019-04-03T07:52:50.751Z,13.17
2019-04-03T07:57:52.760Z,13.50
2019-04-03T08:02:54.617Z,12.92
2019-04-03T08:07:56.550Z,13.31
2019-04-03T08:12:59.885Z,13.43
2019-04-03T08:18:01.945Z,13.32
2019-04-03T08:23:05.951Z,13.46
2019-04-03T08:28:07.430Z,13.82
2019-04-03T08:33:15.919Z,14.08
2019-04-03T08:38:14.170Z,14.26
2019-04-03T08:43:16.251Z,14.87
2019-04-03T08:48:18.305Z,14.91
2019-04-03T08:53:20.647Z,14.98
2019-04-03T08:58:25.414Z,15.29
2019-04-03T09:03:26.263Z,15.81
2019-04-03T09:08:30.827Z,15.62
2019-04-03T09:13:33.667Z,16.16
2019-04-03T09:18:38.044Z,15.49
2019-04-03T09:23:39.066Z,15.79
2019-04-03T09:28:41.915Z,15.27
2019-04-03T09:33:45.306Z,15.76
2019-04-03T09:38:47.219Z,16.04
2019-04-03T09:43:49.253Z,15.52
2019-04-03T09:48:51.568Z,16.08
2019-04-03T09:53:53.680Z,16.37
2019-04-03T09:58:56.680Z,16.37
2019-04-03T10:03:58.964Z,15.98
2019-04-03T10:09:00.906Z,16.06
2019-04-03T10:14:04.456Z,16.21
2019-04-03T10:19:06.285Z,17.11
2019-04-03T10:24:08.164Z,17.25
2019-04-03T10:29:09.924Z,16.85
2019-04-03T10:34:13.979Z,16.95
2019-04-03T10:39:15.955Z,17.14
2019-04-03T10:44:18.258Z,17.09
2019-04-03T10:49:20.062Z,17.44
2019-04-03T10:54:23.948Z,17.44
2019-04-03T10:59:25.785Z,17.89
2019-04-03T11:04:27.555Z,18.13
2019-04-03T11:09:29.266Z,17.66
2019-04-03T11:14:31.091Z,17.34
2019-04-03T11:19:32.827Z,17.38
2019-04-03T11:24:37.706Z,16.84
2019-04-03T11:29:40.993Z,17.39
2019-04-03T11:34:42.305Z,17.77
2019-04-03T11:39:46.243Z,17.84
2019-04-03T11:44:48.124Z,18.26
2019-04-03T11:49:52.501Z,18.47
2019-04-03T11:54:53.616Z,18.37
2019-04-03T11:59:56.921Z,18.39
2019-04-03T12:04:59.003Z,18.30
2019-04-03T12:10:02.883Z,18.28
2019-04-03T12:15:07.785Z,18.03
2019-04-03T12:20:09.971Z,18.19
2019-04-03T12:25:14.008Z,17.94
2019-04-03T12:30:16.157Z,17.39
2019-04-03T12:35:17.983Z,17.52
2019-04-03T12:40:19.806Z,17.84
2019-04-03T12:45:21.658Z,17.47
2019-04-03T12:50:26.879Z,17.59
2019-04-03T12:55:27.182Z,17.72
2019-04-03T13:00:28.862Z,17.77
2019-04-03T13:05:30.732Z,17.82
2019-04-03T13:10:41.483Z,17.93
2019-04-03T13:15:37.589Z,17.61
2019-04-03T13:20:39.941Z,17.85
2019-04-03T13:25:42.053Z,17.54
2019-04-03T13:30:44.653Z,17.93
2019-04-03T13:35:48.147Z,17.08
2019-04-03T13:40:50.947Z,17.33
2019-04-03T13:45:52.856Z,17.27
2019-04-03T13:50:55.498Z,17.27
2019-04-03T13:55:57.995Z,17.40
2019-04-03T14:01:02.775Z,17.59
2019-04-03T14:06:04.386Z,17.50
2019-04-03T14:11:07.191Z,17.06
2019-04-03T14:16:19.731Z,16.99
2019-04-03T14:21:14.082Z,16.50
2019-04-03T14:26:15.971Z,16.16
2019-04-03T14:31:18.661Z,16.08
2019-04-03T14:36:20.828Z,16.25
2019-04-03T14:41:23.082Z,16.40
2019-04-03T14:46:24.916Z,16.20
2019-04-03T14:51:27.197Z,15.98
2019-04-03T14:56:30.385Z,15.82
2019-04-03T15:01:33.134Z,15.81
2019-04-03T15:06:34.951Z,15.56
2019-04-03T15:11:37.003Z,15.46
2019-04-03T15:16:39.024Z,15.38
2019-04-03T15:21:40.966Z,15.34
2019-04-03T15:26:43.129Z,15.42
2019-04-03T15:31:46.298Z,15.60
2019-04-03T15:36:51.544Z,15.52
2019-04-03T15:41:53.459Z,15.52
2019-04-03T15:46:55.263Z,14.92
2019-04-03T15:51:57.014Z,14.90
2019-04-03T15:56:58.957Z,15.06
2019-04-03T16:02:00.748Z,14.89
2019-04-03T16:07:02.888Z,14.62
2019-04-03T16:12:06.235Z,14.55
2019-04-03T16:17:08.755Z,14.13
2019-04-03T16:22:11.780Z,13.72
2019-04-03T16:27:13.925Z,13.59
2019-04-03T16:32:16.012Z,13.38
2019-04-03T16:37:20.517Z,13.37
2019-04-03T16:42:22.618Z,13.25
2019-04-03T16:47:27.535Z,13.02
2019-04-03T16:52:30.226Z,12.95
2019-04-03T16:57:32.200Z,12.67
2019-04-03T17:02:34.325Z,12.43
2019-04-03T17:07:37.718Z,12.18
2019-04-03T17:12:40.769Z,12.19
2019-04-03T17:17:46.122Z,12.02
2019-04-03T17:22:47.478Z,11.96
2019-04-03T17:27:54.965Z,11.96
2019-04-03T17:32:53.045Z,11.88
2019-04-03T17:37:54.948Z,11.77
2019-04-03T17:42:56.751Z,11.42
2019-04-03T17:48:00.542Z,11.24
2019-04-03T17:53:02.315Z,11.31
2019-04-03T17:58:04.359Z,11.03
2019-04-03T18:03:06.117Z,11.07
2019-04-03T18:08:07.833Z,11.01
2019-04-03T18:13:09.671Z,10.89
2019-04-03T18:18:11.474Z,10.68
2019-04-03T18:23:13.297Z,10.68
2019-04-03T18:28:15.075Z,10.56
2019-04-03T18:33:17.544Z,10.48
2019-04-03T18:38:19.586Z,10.21
2019-04-03T18:43:22.405Z,10.25
2019-04-03T18:48:24.379Z,9.94
2019-04-03T18:53:26.117Z,10.03
2019-04-03T18:58:27.978Z,10.01
2019-04-03T19:03:29.882Z,10.09
2019-04-03T19:08:32.224Z,9.92
2019-04-03T19:13:34.162Z,9.78
2019-04-03T19:18:36.061Z,9.56
2019-04-03T19:23:49.132Z,9.38
2019-04-03T19:28:41.577Z,9.31
2019-04-03T19:33:45.491Z,9.44
2019-04-03T19:38:47.006Z,9.70
2019-04-03T19:43:48.769Z,9.65
2019-04-03T19:48:50.689Z,9.72
2019-04-03T19:53:59.275Z,9.78
2019-04-03T19:58:56.293Z,9.74
2019-04-03T20:03:59.724Z,9.62
2019-04-03T20:09:04.992Z,9.64
2019-04-03T20:14:09.518Z,9.78
2019-04-03T20:19:11.608Z,9.41
2019-04-03T20:24:28.816Z,9.26
2019-04-03T20:29:31.864Z,9.45
2019-04-03T20:34:33.727Z,9.19
2019-04-03T20:39:35.545Z,8.81
2019-04-03T20:44:38.953Z,8.69
2019-04-03T20:49:43.568Z,8.69
2019-04-03T20:54:45.585Z,8.49
2019-04-03T20:59:58.498Z,8.40
2019-04-03T21:04:51.111Z,8.42
2019-04-03T21:09:52.845Z,8.43
2019-04-03T21:15:07.432Z,8.36
2019-04-03T21:19:58.350Z,8.26
2019-04-03T21:25:00.190Z,8.18
2019-04-03T21:30:02.261Z,7.96
2019-04-03T21:35:04.433Z,8.08
2019-04-03T21:40:06.268Z,8.02
2019-04-03T21:45:08.225Z,7.97
2019-04-03T21:50:10.159Z,7.97
2019-04-03T21:55:11.893Z,7.99
2019-04-03T22:00:15.907Z,7.91
2019-04-03T22:05:19.448Z,8.01
2019-04-03T22:10:21.465Z,8.01
2019-04-03T22:15:23.331Z,7.87
2019-04-03T22:20:25.282Z,7.46
2019-04-03T22:25:27.192Z,7.48
2019-04-03T22:30:29.078Z,7.23
2019-04-03T22:35:32.157Z,7.15
2019-04-03T22:40:34.683Z,7.18
2019-04-03T22:45:36.513Z,7.17
2019-04-03T22:50:38.317Z,7.04
2019-04-03T22:55:40.188Z,7.04
2019-04-03T23:00:41.992Z,7.10
2019-04-03T23:05:43.847Z,6.89
2019-04-03T23:10:45.632Z,6.97
2019-04-03T23:15:47.503Z,7.06
2019-04-03T23:20:52.602Z,7.08
2019-04-03T23:25:53.086Z,6.96
2019-04-03T23:30:54.911Z,6.91
2019-04-03T23:35:56.902Z,6.83
2019-04-03T23:40:58.790Z,6.91
2019-04-03T23:46:01.581Z,6.83
2019-04-03T23:51:03.585Z,6.72
2019-04-03T23:56:07.400Z,6.69
